createdAt,value
2018-10-17T00:02:17.158Z,105.50
2018-10-17T00:05:21.476Z,110.43
2018-10-17T00:08:25.782Z,105.93
2018-10-17T00:11:30.121Z,109.77
2018-10-17T00:14:34.425Z,115.07
2018-10-17T00:17:38.728Z,109.77
2018-10-17T00:20:43.096Z,116.33
2018-10-17T00:23:47.354Z,111.23
2018-10-17T00:26:51.702Z,110.93
2018-10-17T00:29:56.011Z,113.77
2018-10-17T00:33:00.332Z,119.17
2018-10-17T00:36:04.661Z,112.73
2018-10-17T00:39:11.570Z,108.63
2018-10-17T00:42:15.844Z,108.53
2018-10-17T00:45:20.174Z,105.63
2018-10-17T00:48:24.548Z,114.50
2018-10-17T00:51:28.831Z,106.27
2018-10-17T00:54:33.108Z,104.30
2018-10-17T00:57:37.484Z,110.43
2018-10-17T01:00:41.797Z,109.47
2018-10-17T01:03:52.802Z,114.83
2018-10-17T01:06:57.741Z,108.70
2018-10-17T01:10:02.015Z,105.73
2018-10-17T01:13:08.135Z,109.30
2018-10-17T01:16:12.345Z,107.73
2018-10-17T01:19:16.707Z,110.60
2018-10-17T01:22:20.973Z,114.67
2018-10-17T01:25:25.223Z,110.27
2018-10-17T01:28:29.564Z,113.13
2018-10-17T01:31:33.840Z,114.47
2018-10-17T01:34:38.165Z,118.00
2018-10-17T01:37:42.505Z,115.50
2018-10-17T01:40:46.831Z,118.37
2018-10-17T01:43:51.073Z,125.07
2018-10-17T01:46:55.369Z,128.47
2018-10-17T01:49:59.672Z,117.93
2018-10-17T01:53:04.038Z,128.90
2018-10-17T01:56:08.335Z,122.30
2018-10-17T01:59:12.680Z,123.50
2018-10-17T02:02:16.946Z,118.17
2018-10-17T02:05:21.291Z,121.00
2018-10-17T02:08:25.645Z,122.53
2018-10-17T02:11:30.471Z,114.07
2018-10-17T02:14:34.793Z,121.83
2018-10-17T02:17:39.081Z,119.73
2018-10-17T02:20:43.391Z,111.17
2018-10-17T02:23:47.755Z,110.00
2018-10-17T02:26:52.543Z,107.90
2018-10-17T02:29:56.911Z,116.03
2018-10-17T02:33:01.196Z,118.33
2018-10-17T02:36:05.877Z,111.47
2018-10-17T02:39:11.019Z,121.00
2018-10-17T02:42:15.281Z,112.63
2018-10-17T02:45:19.600Z,112.43
2018-10-17T02:48:24.750Z,112.07
2018-10-17T02:51:29.092Z,111.50
2018-10-17T02:54:33.522Z,124.93
2018-10-17T02:57:38.455Z,108.93
2018-10-17T03:00:42.751Z,104.97
2018-10-17T03:03:47.084Z,103.33
2018-10-17T03:06:51.444Z,106.33
2018-10-17T03:09:55.764Z,106.83
2018-10-17T03:13:00.081Z,116.83
2018-10-17T03:16:04.523Z,102.57
2018-10-17T03:19:09.636Z,113.17
2018-10-17T03:22:13.856Z,112.00
2018-10-17T03:25:18.227Z,113.97
2018-10-17T03:28:22.421Z,115.10
2018-10-17T03:31:26.836Z,110.40
2018-10-17T03:34:31.368Z,112.80
2018-10-17T03:37:36.113Z,109.57
2018-10-17T03:40:40.989Z,116.83
2018-10-17T03:43:45.284Z,104.83
2018-10-17T03:46:49.566Z,105.77
2018-10-17T03:49:54.014Z,106.13
2018-10-17T03:52:58.262Z,110.57
2018-10-17T03:56:02.627Z,109.30
2018-10-17T03:59:07.928Z,110.10
2018-10-17T04:02:12.245Z,115.67
2018-10-17T04:05:17.236Z,116.63
2018-10-17T04:08:21.549Z,115.87
2018-10-17T04:11:26.081Z,118.13
2018-10-17T04:14:30.447Z,115.50
2018-10-17T04:17:34.893Z,122.80
2018-10-17T04:20:39.182Z,131.33
2018-10-17T04:23:44.280Z,116.83
2018-10-17T04:26:48.906Z,121.07
2018-10-17T04:29:56.147Z,122.33
2018-10-17T04:33:00.429Z,120.93
2018-10-17T04:36:04.786Z,119.37
2018-10-17T04:39:11.575Z,118.17
2018-10-17T04:42:15.887Z,120.83
2018-10-17T04:45:20.238Z,116.50
2018-10-17T04:48:24.558Z,121.40
2018-10-17T04:51:28.899Z,126.30
2018-10-17T04:54:33.165Z,130.47
2018-10-17T04:57:37.485Z,119.40
2018-10-17T05:00:41.835Z,124.77
2018-10-17T05:03:46.108Z,125.20
2018-10-17T05:06:50.500Z,133.07
2018-10-17T05:09:54.690Z,130.10
2018-10-17T05:12:59.068Z,129.90
2018-10-17T05:16:04.771Z,129.20
2018-10-17T05:19:10.034Z,127.57
2018-10-17T05:22:14.306Z,131.93
2018-10-17T05:25:18.645Z,131.70
2018-10-17T05:28:23.009Z,122.43
2018-10-17T05:31:27.280Z,142.60
2018-10-17T05:34:31.656Z,134.23
2018-10-17T05:37:36.102Z,140.53
2018-10-17T05:40:40.323Z,121.20
2018-10-17T05:43:44.591Z,132.30
2018-10-17T05:46:49.083Z,113.93
2018-10-17T05:49:53.402Z,96.67
2018-10-17T05:52:57.693Z,111.53
2018-10-17T05:56:02.063Z,115.07
2018-10-17T05:59:06.417Z,117.93
2018-10-17T06:02:13.559Z,114.70
2018-10-17T06:05:17.781Z,126.23
2018-10-17T06:08:22.125Z,118.33
2018-10-17T06:11:26.419Z,126.67
2018-10-17T06:14:30.744Z,124.00
2018-10-17T06:17:35.038Z,121.47
2018-10-17T06:20:39.389Z,112.57
2018-10-17T06:23:43.709Z,118.60
2018-10-17T06:26:48.606Z,124.50
2018-10-17T06:29:53.445Z,115.50
2018-10-17T06:32:57.787Z,112.47
2018-10-17T06:36:03.126Z,121.17
2018-10-17T06:39:10.100Z,112.17
2018-10-17T06:42:14.380Z,120.37
2018-10-17T06:45:20.577Z,121.47
2018-10-17T06:48:25.657Z,113.90
2018-10-17T06:51:30.038Z,117.30
2018-10-17T06:54:34.665Z,116.33
2018-10-17T06:57:38.925Z,136.13
2018-10-17T07:00:43.269Z,131.00
2018-10-17T07:03:47.561Z,121.23
2018-10-17T07:06:51.953Z,117.83
2018-10-17T07:09:56.238Z,114.13
2018-10-17T07:13:00.628Z,118.17
2018-10-17T07:16:05.040Z,124.70
2018-10-17T07:19:09.459Z,115.20
2018-10-17T07:22:13.825Z,106.97
2018-10-17T07:25:18.111Z,108.03
2018-10-17T07:28:22.404Z,104.10
2018-10-17T07:31:27.262Z,90.63
2018-10-17T07:34:31.618Z,94.03
2018-10-17T07:37:35.945Z,89.00
2018-10-17T07:40:40.242Z,90.57
2018-10-17T07:43:44.522Z,84.00
2018-10-17T07:46:48.792Z,81.47
2018-10-17T07:49:53.108Z,103.10
2018-10-17T07:52:57.943Z,76.77
2018-10-17T07:56:02.527Z,79.27
2018-10-17T07:59:06.933Z,71.03
2018-10-17T08:02:11.225Z,71.83
2018-10-17T08:05:15.524Z,73.67
2018-10-17T08:08:19.844Z,66.20
2018-10-17T08:11:24.152Z,70.20
2018-10-17T08:14:29.403Z,65.60
2018-10-17T08:17:33.776Z,67.33
2018-10-17T08:20:38.091Z,64.83
2018-10-17T08:23:42.387Z,64.07
2018-10-17T08:26:46.726Z,64.50
2018-10-17T08:29:51.031Z,69.13
2018-10-17T08:32:55.453Z,67.77
2018-10-17T08:35:59.975Z,63.37
2018-10-17T08:39:05.790Z,68.47
2018-10-17T08:42:11.791Z,59.87
2018-10-17T08:45:16.154Z,58.03
2018-10-17T08:48:20.457Z,60.03
2018-10-17T08:51:24.769Z,58.77
2018-10-17T08:54:29.096Z,58.70
2018-10-17T08:57:33.429Z,57.50
2018-10-17T09:04:13.385Z,53.80
2018-10-17T09:07:17.819Z,53.23
2018-10-17T09:10:22.107Z,55.67
2018-10-17T09:13:26.556Z,50.10
2018-10-17T09:16:30.977Z,47.17
2018-10-17T09:19:35.501Z,51.20
2018-10-17T09:22:39.700Z,43.87
2018-10-17T09:25:44.010Z,47.60
2018-10-17T09:28:48.189Z,40.53
2018-10-17T09:31:52.478Z,36.43
2018-10-17T09:34:56.781Z,38.33
2018-10-17T09:38:01.152Z,37.37
2018-10-17T09:41:05.421Z,34.63
2018-10-17T09:44:09.757Z,37.93
2018-10-17T09:47:14.077Z,33.10
2018-10-17T09:50:18.377Z,30.40
2018-10-17T09:53:22.847Z,30.70
2018-10-17T09:56:27.078Z,28.73
2018-10-17T09:59:31.401Z,29.23
2018-10-17T10:02:35.719Z,32.67
2018-10-17T10:05:39.987Z,28.27
2018-10-17T10:08:44.291Z,29.57
2018-10-17T10:11:48.518Z,28.23
2018-10-17T10:14:52.870Z,31.43
2018-10-17T10:17:57.376Z,29.07
2018-10-17T10:21:01.734Z,30.53
2018-10-17T10:24:06.126Z,28.43
2018-10-17T10:27:10.476Z,26.63
2018-10-17T10:30:14.897Z,27.70
2018-10-17T10:33:19.180Z,30.37
2018-10-17T10:36:23.772Z,25.83
2018-10-17T10:39:28.071Z,29.20
2018-10-17T10:42:32.380Z,25.10
2018-10-17T10:45:36.774Z,81.77
2018-10-17T10:48:41.117Z,29.27
2018-10-17T10:51:45.541Z,67.07
2018-10-17T10:54:49.775Z,23.17
2018-10-17T10:57:54.040Z,20.20
2018-10-17T11:00:58.323Z,20.23
2018-10-17T11:04:04.677Z,22.40
2018-10-17T11:07:09.153Z,25.23
2018-10-17T11:10:13.755Z,21.67
2018-10-17T11:13:18.336Z,24.43
2018-10-17T11:16:23.060Z,23.27
2018-10-17T11:19:27.656Z,24.93
2018-10-17T11:22:31.931Z,26.83
2018-10-17T11:25:36.329Z,25.23
2018-10-17T11:28:40.677Z,25.90
2018-10-17T11:31:44.925Z,31.30
2018-10-17T11:34:49.197Z,24.70
2018-10-17T11:37:53.630Z,23.33
2018-10-17T11:40:57.902Z,27.83
2018-10-17T11:44:02.165Z,26.50
2018-10-17T11:47:06.621Z,25.20
2018-10-17T11:50:12.358Z,29.97
2018-10-17T11:53:16.723Z,27.20
2018-10-17T11:56:21.064Z,29.40
2018-10-17T11:59:25.580Z,28.93
2018-10-17T12:02:29.867Z,27.77
2018-10-17T12:05:34.507Z,27.23
2018-10-17T12:08:38.472Z,27.90
2018-10-17T12:11:42.820Z,26.53
2018-10-17T12:14:47.388Z,28.60
2018-10-17T12:17:51.731Z,30.23
2018-10-17T12:20:56.022Z,29.93
2018-10-17T12:24:00.537Z,31.70
2018-10-17T12:27:05.015Z,29.10
2018-10-17T12:30:13.019Z,33.00
2018-10-17T12:33:17.348Z,36.53
2018-10-17T12:36:21.825Z,32.90
2018-10-17T12:39:26.272Z,34.40
2018-10-17T12:42:31.406Z,33.47
2018-10-17T12:45:35.858Z,31.30
2018-10-17T12:48:40.233Z,31.90
2018-10-17T12:51:44.671Z,32.63
2018-10-17T12:54:49.070Z,32.33
2018-10-17T12:57:53.586Z,34.03
2018-10-17T13:00:57.952Z,33.33
2018-10-17T13:04:02.356Z,35.03
2018-10-17T13:07:07.002Z,34.50
2018-10-17T13:10:12.163Z,32.40
2018-10-17T13:13:16.494Z,31.87
2018-10-17T13:16:20.721Z,34.33
2018-10-17T13:19:25.525Z,35.73
2018-10-17T13:22:29.818Z,34.73
2018-10-17T13:25:34.772Z,32.23
2018-10-17T13:28:39.047Z,33.47
2018-10-17T13:31:43.338Z,35.03
2018-10-17T13:34:47.692Z,34.40
2018-10-17T13:37:52.029Z,31.83
2018-10-17T13:40:56.310Z,35.33
2018-10-17T13:44:00.655Z,33.50
2018-10-17T13:47:06.012Z,36.70
2018-10-17T13:50:10.348Z,36.87
2018-10-17T13:53:15.143Z,33.30
2018-10-17T13:56:19.289Z,34.43
2018-10-17T13:59:23.686Z,31.20
2018-10-17T14:02:27.868Z,35.30
2018-10-17T14:05:32.203Z,34.97
2018-10-17T14:08:36.545Z,34.97
2018-10-17T14:11:41.926Z,37.90
2018-10-17T14:14:46.149Z,39.33
2018-10-17T14:17:50.526Z,37.17
2018-10-17T14:20:54.943Z,42.03
2018-10-17T14:23:59.736Z,41.90
2018-10-17T14:27:04.163Z,41.87
2018-10-17T14:30:09.073Z,40.23
2018-10-17T14:33:13.477Z,37.50
2018-10-17T14:36:17.808Z,40.30
2018-10-17T14:39:22.153Z,39.13
2018-10-17T14:42:26.392Z,40.47
2018-10-17T14:45:30.744Z,41.43
2018-10-17T14:48:35.011Z,42.43
2018-10-17T14:51:39.544Z,45.80
2018-10-17T14:54:43.891Z,43.60
2018-10-17T14:57:48.173Z,48.30
2018-10-17T15:00:52.578Z,44.53
2018-10-17T15:03:56.866Z,49.47
2018-10-17T15:07:01.173Z,48.27
2018-10-17T15:10:05.815Z,41.73
2018-10-17T15:13:10.136Z,48.70
2018-10-17T15:16:14.518Z,46.37
2018-10-17T15:19:18.855Z,48.27
2018-10-17T15:22:23.268Z,48.70
2018-10-17T15:25:27.605Z,53.90
2018-10-17T15:28:31.941Z,52.27
2018-10-17T15:31:36.242Z,51.00
2018-10-17T15:34:40.555Z,53.20
2018-10-17T15:37:44.902Z,47.33
2018-10-17T15:40:49.347Z,50.87
2018-10-17T15:43:53.892Z,50.87
2018-10-17T15:46:58.157Z,50.63
2018-10-17T15:50:02.476Z,54.17
2018-10-17T15:53:06.922Z,56.17
2018-10-17T15:56:11.105Z,52.37
2018-10-17T15:59:15.433Z,52.80
2018-10-17T16:02:19.861Z,55.87
2018-10-17T16:05:24.187Z,61.07
2018-10-17T16:08:28.594Z,55.93
2018-10-17T16:11:32.903Z,55.43
2018-10-17T16:14:37.316Z,54.23
2018-10-17T16:17:41.751Z,61.23
2018-10-17T16:20:46.096Z,60.90
2018-10-17T16:23:50.513Z,62.27
2018-10-17T16:26:54.934Z,57.50
2018-10-17T16:29:59.525Z,65.63
2018-10-17T16:33:03.754Z,63.00
2018-10-17T16:36:08.123Z,67.40
2018-10-17T16:39:13.952Z,67.77
2018-10-17T16:42:18.341Z,66.83
2018-10-17T16:45:22.684Z,65.33
2018-10-17T16:48:26.990Z,71.57
2018-10-17T16:51:32.014Z,67.00
2018-10-17T16:54:36.361Z,70.17
2018-10-17T16:57:40.670Z,65.90
2018-10-17T17:00:46.147Z,68.73
2018-10-17T17:03:50.399Z,70.40
2018-10-17T17:06:54.662Z,68.50
2018-10-17T17:09:59.709Z,72.00
2018-10-17T17:13:04.027Z,66.27
2018-10-17T17:16:08.349Z,71.90
2018-10-17T17:19:12.649Z,70.20
2018-10-17T17:22:17.091Z,72.87
2018-10-17T17:25:21.403Z,72.30
2018-10-17T17:28:25.747Z,72.77
2018-10-17T17:31:30.015Z,75.20
2018-10-17T17:34:35.604Z,76.37
2018-10-17T17:37:39.942Z,75.07
2018-10-17T17:40:44.329Z,77.97
2018-10-17T17:43:48.568Z,82.40
2018-10-17T17:46:52.879Z,80.87
2018-10-17T17:49:57.167Z,78.30
2018-10-17T17:53:01.698Z,78.37
2018-10-17T17:56:06.188Z,76.07
2018-10-17T17:59:10.594Z,80.30
2018-10-17T18:02:14.963Z,83.10
2018-10-17T18:05:19.340Z,79.77
2018-10-17T18:08:23.715Z,82.47
2018-10-17T18:11:28.261Z,79.80
2018-10-17T18:14:32.624Z,82.80
2018-10-17T18:17:38.817Z,76.13
2018-10-17T18:20:43.182Z,83.63
2018-10-17T18:23:47.589Z,90.50
2018-10-17T18:26:51.906Z,85.03
2018-10-17T18:29:57.045Z,79.67
2018-10-17T18:33:01.512Z,84.80
2018-10-17T18:36:06.219Z,82.07
2018-10-17T18:39:10.646Z,84.53
2018-10-17T18:42:15.848Z,82.67
2018-10-17T18:45:20.177Z,93.50
2018-10-17T18:48:25.179Z,87.03
2018-10-17T18:51:29.543Z,87.40
2018-10-17T18:54:33.998Z,86.37
2018-10-17T18:57:38.369Z,97.53
2018-10-17T19:00:42.830Z,93.33
2018-10-17T19:03:47.157Z,98.20
2018-10-17T19:06:51.496Z,90.17
2018-10-17T19:09:55.925Z,91.23
2018-10-17T19:13:00.334Z,91.47
2018-10-17T19:16:04.737Z,94.50
2018-10-17T19:19:09.071Z,99.30
2018-10-17T19:22:13.421Z,100.60
2018-10-17T19:25:17.740Z,89.13
2018-10-17T19:28:22.140Z,83.73
2018-10-17T19:31:26.527Z,84.67
2018-10-17T19:34:30.881Z,81.40
2018-10-17T19:37:35.793Z,71.07
2018-10-17T19:40:40.118Z,66.10
2018-10-17T19:43:44.555Z,59.63
2018-10-17T19:46:48.981Z,53.37
2018-10-17T19:49:53.309Z,47.77
2018-10-17T19:52:57.634Z,47.10
2018-10-17T19:56:02.140Z,51.93
2018-10-17T19:59:06.818Z,42.10
2018-10-17T20:02:12.156Z,46.80
2018-10-17T20:05:16.449Z,44.20
2018-10-17T20:08:20.875Z,42.17
2018-10-17T20:11:25.193Z,38.80
2018-10-17T20:14:29.596Z,41.00
2018-10-17T20:17:34.014Z,41.23
2018-10-17T20:20:38.313Z,37.70
2018-10-17T20:23:42.688Z,40.17
2018-10-17T20:26:47.134Z,42.27
2018-10-17T20:29:52.285Z,37.37
2018-10-17T20:32:57.304Z,43.23
2018-10-17T20:36:01.644Z,41.93
2018-10-17T20:39:12.650Z,38.20
2018-10-17T20:42:16.993Z,38.23
2018-10-17T20:45:21.442Z,37.03
2018-10-17T20:48:26.803Z,42.43
2018-10-17T20:51:31.894Z,39.27
2018-10-17T20:54:37.680Z,45.70
2018-10-17T20:57:42.005Z,44.57
2018-10-17T21:00:46.397Z,44.73
2018-10-17T21:03:50.721Z,48.60
2018-10-17T21:06:55.075Z,47.17
2018-10-17T21:09:59.446Z,48.07
2018-10-17T21:13:03.804Z,45.73
2018-10-17T21:16:08.203Z,50.07
2018-10-17T21:19:12.559Z,46.90
2018-10-17T21:22:17.172Z,48.10
2018-10-17T21:25:21.858Z,50.93
2018-10-17T21:28:26.304Z,47.97
2018-10-17T21:31:30.848Z,45.30
2018-10-17T21:34:35.146Z,43.10
2018-10-17T21:37:39.551Z,46.77
2018-10-17T21:40:43.784Z,47.70
2018-10-17T21:43:48.197Z,47.40
2018-10-17T21:46:52.649Z,45.10
2018-10-17T21:49:56.955Z,47.60
2018-10-17T21:53:01.390Z,51.20
2018-10-17T21:56:05.837Z,50.63
2018-10-17T21:59:10.169Z,46.93
2018-10-17T22:02:14.738Z,49.97
2018-10-17T22:05:18.997Z,51.90
2018-10-17T22:08:23.301Z,53.23
2018-10-17T22:11:27.684Z,52.03
2018-10-17T22:14:32.044Z,47.67
2018-10-17T22:17:36.400Z,49.00
2018-10-17T22:20:41.612Z,53.70
2018-10-17T22:23:45.990Z,54.50
2018-10-17T22:26:50.247Z,50.67
2018-10-17T22:29:54.693Z,48.20
2018-10-17T22:32:59.931Z,53.43
2018-10-17T22:36:04.917Z,55.77
2018-10-17T22:39:13.268Z,49.67
2018-10-17T22:42:17.552Z,55.30
2018-10-17T22:45:21.997Z,50.23
2018-10-17T22:48:26.372Z,57.20
2018-10-17T22:51:30.804Z,54.03
2018-10-17T22:54:35.225Z,58.10
2018-10-17T22:57:41.689Z,56.20
2018-10-17T23:00:45.991Z,57.03
2018-10-17T23:03:50.418Z,59.10
2018-10-17T23:06:54.702Z,55.33
2018-10-17T23:09:59.000Z,54.90
2018-10-17T23:13:04.597Z,56.37
2018-10-17T23:16:08.872Z,56.47
2018-10-17T23:19:13.262Z,60.70
2018-10-17T23:22:17.599Z,55.00
2018-10-17T23:25:21.908Z,58.50
2018-10-17T23:46:17.360Z,70.83
2018-10-17T23:49:22.648Z,79.93
2018-10-17T23:52:27.047Z,78.33
